sensor_id;sensor_type;location;lat;lon;timestamp;P1;durP1;ratioP1;P2;durP2;ratioP2
3175;SDS011;1599;51.564;6.990;2024-02-21T00:01:05;2.40;;;0.50;;
3175;SDS011;1599;51.564;6.990;2024-02-21T00:03:31;2.40;;;0.50;;
3175;SDS011;1599;51.564;6.990;2024-02-21T00:05:57;2.50;;;0.50;;
3175;SDS011;1599;51.564;6.990;2024-02-21T00:08:22;2.57;;;0.90;;
3175;SDS011;1599;51.564;6.990;2024-02-21T00:10:48;2.43;;;0.50;;
3175;SDS011;1599;51.564;6.990;2024-02-21T00:13:14;2.40;;;0.50;;
3175;SDS011;1599;51.564;6.990;2024-02-21T00:15:40;2.47;;;0.50;;
3175;SDS011;1599;51.564;6.990;2024-02-21T00:18:05;2.43;;;0.50;;
3175;SDS011;1599;51.564;6.990;2024-02-21T00:20:31;2.40;;;0.50;;
3175;SDS011;1599;51.564;6.990;2024-02-21T00:22:57;2.50;;;0.50;;
3175;SDS011;1599;51.564;6.990;2024-02-21T00:25:22;2.50;;;0.50;;
3175;SDS011;1599;51.564;6.990;2024-02-21T00:27:48;2.50;;;0.50;;
3175;SDS011;1599;51.564;6.990;2024-02-21T00:30:14;2.60;;;0.50;;
3175;SDS011;1599;51.564;6.990;2024-02-21T00:32:39;2.50;;;0.50;;
3175;SDS011;1599;51.564;6.990;2024-02-21T00:35:05;2.50;;;0.50;;
3175;SDS011;1599;51.564;6.990;2024-02-21T00:37:31;2.70;;;1.03;;
3175;SDS011;1599;51.564;6.990;2024-02-21T00:39:57;2.57;;;0.50;;
3175;SDS011;1599;51.564;6.990;2024-02-21T00:42:23;16.07;;;4.57;;
3175;SDS011;1599;51.564;6.990;2024-02-21T00:44:48;16.23;;;0.60;;
3175;SDS011;1599;51.564;6.990;2024-02-21T00:47:14;6.37;;;0.50;;
3175;SDS011;1599;51.564;6.990;2024-02-21T00:49:40;6.60;;;0.57;;
3175;SDS011;1599;51.564;6.990;2024-02-21T00:52:06;6.53;;;0.50;;
3175;SDS011;1599;51.564;6.990;2024-02-21T00:54:31;6.40;;;0.60;;
3175;SDS011;1599;51.564;6.990;2024-02-21T00:56:57;6.40;;;0.60;;
3175;SDS011;1599;51.564;6.990;2024-02-21T00:59:23;6.37;;;0.60;;
3175;SDS011;1599;51.564;6.990;2024-02-21T01:01:48;6.40;;;0.60;;
3175;SDS011;1599;51.564;6.990;2024-02-21T01:04:14;6.43;;;0.60;;
3175;SDS011;1599;51.564;6.990;2024-02-21T01:06:40;6.60;;;0.90;;
3175;SDS011;1599;51.564;6.990;2024-02-21T01:09:07;6.37;;;0.60;;
3175;SDS011;1599;51.564;6.990;2024-02-21T01:11:33;6.33;;;0.50;;
3175;SDS011;1599;51.564;6.990;2024-02-21T01:13:59;6.20;;;0.50;;
3175;SDS011;1599;51.564;6.990;2024-02-21T01:16:25;6.43;;;0.70;;
3175;SDS011;1599;51.564;6.990;2024-02-21T01:18:51;6.40;;;0.50;;
3175;SDS011;1599;51.564;6.990;2024-02-21T01:21:17;6.30;;;0.50;;
3175;SDS011;1599;51.564;6.990;2024-02-21T01:23:42;6.50;;;0.57;;
3175;SDS011;1599;51.564;6.990;2024-02-21T01:26:08;6.57;;;0.77;;
3175;SDS011;1599;51.564;6.990;2024-02-21T01:28:37;6.43;;;0.60;;
3175;SDS011;1599;51.564;6.990;2024-02-21T01:31:03;6.50;;;0.60;;
3175;SDS011;1599;51.564;6.990;2024-02-21T01:33:29;6.53;;;0.50;;
3175;SDS011;1599;51.564;6.990;2024-02-21T01:35:59;6.47;;;0.57;;
3175;SDS011;1599;51.564;6.990;2024-02-21T01:38:29;6.50;;;0.50;;
3175;SDS011;1599;51.564;6.990;2024-02-21T01:40:55;6.50;;;0.50;;
3175;SDS011;1599;51.564;6.990;2024-02-21T01:43:21;6.53;;;0.70;;
3175;SDS011;1599;51.564;6.990;2024-02-21T01:45:48;6.50;;;0.60;;
3175;SDS011;1599;51.564;6.990;2024-02-21T01:48:17;6.50;;;0.50;;
3175;SDS011;1599;51.564;6.990;2024-02-21T01:50:46;6.53;;;0.60;;
3175;SDS011;1599;51.564;6.990;2024-02-21T01:53:30;7.00;;;0.77;;
3175;SDS011;1599;51.564;6.990;2024-02-21T01:56:00;6.60;;;0.50;;
3175;SDS011;1599;51.564;6.990;2024-02-21T01:58:26;6.67;;;0.50;;
3175;SDS011;1599;51.564;6.990;2024-02-21T02:00:53;6.60;;;0.50;;
3175;SDS011;1599;51.564;6.990;2024-02-21T02:03:22;6.60;;;0.60;;
3175;SDS011;1599;51.564;6.990;2024-02-21T02:05:50;6.50;;;0.60;;
3175;SDS011;1599;51.564;6.990;2024-02-21T02:08:18;6.43;;;0.50;;
3175;SDS011;1599;51.564;6.990;2024-02-21T02:10:47;6.60;;;0.50;;
3175;SDS011;1599;51.564;6.990;2024-02-21T02:13:13;6.70;;;0.50;;
3175;SDS011;1599;51.564;6.990;2024-02-21T02:15:39;6.93;;;0.90;;
3175;SDS011;1599;51.564;6.990;2024-02-21T02:18:09;6.80;;;0.60;;
3175;SDS011;1599;51.564;6.990;2024-02-21T02:20:37;6.90;;;0.70;;
3175;SDS011;1599;51.564;6.990;2024-02-21T02:23:17;6.70;;;0.50;;
3175;SDS011;1599;51.564;6.990;2024-02-21T02:25:47;6.83;;;0.60;;
3175;SDS011;1599;51.564;6.990;2024-02-21T02:28:14;4.00;;;0.50;;
3175;SDS011;1599;51.564;6.990;2024-02-21T02:30:40;4.00;;;0.50;;
3175;SDS011;1599;51.564;6.990;2024-02-21T02:33:05;3.97;;;0.50;;
3175;SDS011;1599;51.564;6.990;2024-02-21T02:35:31;3.97;;;0.50;;
3175;SDS011;1599;51.564;6.990;2024-02-21T02:38:00;3.97;;;0.50;;
3175;SDS011;1599;51.564;6.990;2024-02-21T02:40:26;4.10;;;1.10;;
3175;SDS011;1599;51.564;6.990;2024-02-21T02:42:51;3.93;;;0.50;;
3175;SDS011;1599;51.564;6.990;2024-02-21T02:45:20;3.93;;;0.50;;
3175;SDS011;1599;51.564;6.990;2024-02-21T02:47:48;3.93;;;0.50;;
3175;SDS011;1599;51.564;6.990;2024-02-21T02:50:14;3.90;;;0.50;;
3175;SDS011;1599;51.564;6.990;2024-02-21T02:52:40;3.90;;;0.50;;
3175;SDS011;1599;51.564;6.990;2024-02-21T02:55:06;3.90;;;0.50;;
3175;SDS011;1599;51.564;6.990;2024-02-21T02:57:32;3.87;;;0.50;;
3175;SDS011;1599;51.564;6.990;2024-02-21T02:59:58;3.80;;;0.50;;
3175;SDS011;1599;51.564;6.990;2024-02-21T03:02:24;3.80;;;0.50;;
3175;SDS011;1599;51.564;6.990;2024-02-21T03:04:50;3.80;;;0.50;;
3175;SDS011;1599;51.564;6.990;2024-02-21T03:07:15;3.77;;;0.50;;
3175;SDS011;1599;51.564;6.990;2024-02-21T03:09:42;3.77;;;0.50;;
3175;SDS011;1599;51.564;6.990;2024-02-21T03:12:08;3.70;;;0.50;;
3175;SDS011;1599;51.564;6.990;2024-02-21T03:14:34;3.77;;;0.50;;
3175;SDS011;1599;51.564;6.990;2024-02-21T03:17:00;3.70;;;0.50;;
3175;SDS011;1599;51.564;6.990;2024-02-21T03:19:27;3.80;;;0.50;;
3175;SDS011;1599;51.564;6.990;2024-02-21T03:21:53;3.80;;;0.50;;
3175;SDS011;1599;51.564;6.990;2024-02-21T03:24:20;3.77;;;0.50;;
3175;SDS011;1599;51.564;6.990;2024-02-21T03:26:46;3.80;;;0.60;;
3175;SDS011;1599;51.564;6.990;2024-02-21T03:29:14;3.77;;;0.50;;
3175;SDS011;1599;51.564;6.990;2024-02-21T03:31:40;3.80;;;0.50;;
3175;SDS011;1599;51.564;6.990;2024-02-21T03:34:07;3.80;;;0.50;;
3175;SDS011;1599;51.564;6.990;2024-02-21T03:36:33;3.80;;;0.50;;
3175;SDS011;1599;51.564;6.990;2024-02-21T03:38:58;3.70;;;0.50;;
3175;SDS011;1599;51.564;6.990;2024-02-21T03:41:25;3.80;;;0.50;;
3175;SDS011;1599;51.564;6.990;2024-02-21T03:43:51;3.80;;;0.50;;
3175;SDS011;1599;51.564;6.990;2024-02-21T03:46:17;3.93;;;0.50;;
3175;SDS011;1599;51.564;6.990;2024-02-21T03:48:43;8.30;;;0.60;;
3175;SDS011;1599;51.564;6.990;2024-02-21T03:51:09;10.57;;;0.60;;
3175;SDS011;1599;51.564;6.990;2024-02-21T03:53:35;10.57;;;0.60;;
3175;SDS011;1599;51.564;6.990;2024-02-21T03:56:01;10.77;;;0.60;;
3175;SDS011;1599;51.564;6.990;2024-02-21T03:58:29;11.07;;;0.60;;
3175;SDS011;1599;51.564;6.990;2024-02-21T04:00:56;11.20;;;0.60;;
3175;SDS011;1599;51.564;6.990;2024-02-21T04:03:22;11.17;;;0.60;;
3175;SDS011;1599;51.564;6.990;2024-02-21T04:05:47;11.23;;;0.60;;
3175;SDS011;1599;51.564;6.990;2024-02-21T04:08:13;11.23;;;0.70;;
3175;SDS011;1599;51.564;6.990;2024-02-21T04:10:39;11.23;;;0.60;;
3175;SDS011;1599;51.564;6.990;2024-02-21T04:13:06;11.47;;;0.60;;
3175;SDS011;1599;51.564;6.990;2024-02-21T04:15:32;11.43;;;0.70;;
3175;SDS011;1599;51.564;6.990;2024-02-21T04:17:58;11.63;;;0.60;;
3175;SDS011;1599;51.564;6.990;2024-02-21T04:20:23;11.87;;;0.60;;
3175;SDS011;1599;51.564;6.990;2024-02-21T04:22:49;11.73;;;0.60;;
3175;SDS011;1599;51.564;6.990;2024-02-21T04:25:15;11.73;;;0.60;;
3175;SDS011;1599;51.564;6.990;2024-02-21T04:27:41;12.17;;;0.90;;
3175;SDS011;1599;51.564;6.990;2024-02-21T04:30:07;11.77;;;0.60;;
3175;SDS011;1599;51.564;6.990;2024-02-21T04:32:34;11.63;;;0.60;;
3175;SDS011;1599;51.564;6.990;2024-02-21T04:35:00;14.97;;;2.83;;
3175;SDS011;1599;51.564;6.990;2024-02-21T04:37:26;11.77;;;0.87;;
3175;SDS011;1599;51.564;6.990;2024-02-21T04:39:52;11.63;;;0.80;;
3175;SDS011;1599;51.564;6.990;2024-02-21T04:42:17;11.57;;;0.60;;
3175;SDS011;1599;51.564;6.990;2024-02-21T04:44:43;11.67;;;0.60;;
3175;SDS011;1599;51.564;6.990;2024-02-21T04:47:09;11.63;;;0.60;;
3175;SDS011;1599;51.564;6.990;2024-02-21T04:49:35;9.67;;;0.60;;
3175;SDS011;1599;51.564;6.990;2024-02-21T04:52:00;9.43;;;0.60;;
3175;SDS011;1599;51.564;6.990;2024-02-21T04:54:26;9.43;;;0.60;;
3175;SDS011;1599;51.564;6.990;2024-02-21T04:56:52;9.53;;;0.80;;
3175;SDS011;1599;51.564;6.990;2024-02-21T04:59:18;9.47;;;0.60;;
3175;SDS011;1599;51.564;6.990;2024-02-21T05:01:44;9.33;;;0.60;;
3175;SDS011;1599;51.564;6.990;2024-02-21T05:04:09;9.33;;;0.60;;
3175;SDS011;1599;51.564;6.990;2024-02-21T05:06:38;9.53;;;0.60;;
3175;SDS011;1599;51.564;6.990;2024-02-21T05:09:05;9.63;;;0.60;;
3175;SDS011;1599;51.564;6.990;2024-02-21T05:11:31;9.57;;;0.60;;
3175;SDS011;1599;51.564;6.990;2024-02-21T05:13:57;9.70;;;0.60;;
3175;SDS011;1599;51.564;6.990;2024-02-21T05:16:23;9.63;;;0.60;;
3175;SDS011;1599;51.564;6.990;2024-02-21T05:18:49;9.67;;;0.60;;
3175;SDS011;1599;51.564;6.990;2024-02-21T05:21:14;9.63;;;0.60;;
3175;SDS011;1599;51.564;6.990;2024-02-21T05:23:40;9.73;;;0.60;;
3175;SDS011;1599;51.564;6.990;2024-02-21T05:26:06;9.70;;;0.60;;
3175;SDS011;1599;51.564;6.990;2024-02-21T05:28:32;9.67;;;0.60;;
3175;SDS011;1599;51.564;6.990;2024-02-21T05:30:57;9.60;;;0.60;;
3175;SDS011;1599;51.564;6.990;2024-02-21T05:33:23;9.50;;;0.60;;
3175;SDS011;1599;51.564;6.990;2024-02-21T05:35:50;9.50;;;0.60;;
3175;SDS011;1599;51.564;6.990;2024-02-21T05:38:15;9.63;;;0.60;;
3175;SDS011;1599;51.564;6.990;2024-02-21T05:40:41;9.53;;;0.60;;
3175;SDS011;1599;51.564;6.990;2024-02-21T05:43:07;9.23;;;0.60;;
3175;SDS011;1599;51.564;6.990;2024-02-21T05:45:34;9.43;;;0.60;;
3175;SDS011;1599;51.564;6.990;2024-02-21T05:48:00;9.47;;;0.60;;
3175;SDS011;1599;51.564;6.990;2024-02-21T05:50:25;9.47;;;0.60;;
3175;SDS011;1599;51.564;6.990;2024-02-21T05:52:54;9.53;;;0.60;;
3175;SDS011;1599;51.564;6.990;2024-02-21T05:55:20;9.37;;;0.60;;
3175;SDS011;1599;51.564;6.990;2024-02-21T05:57:47;9.43;;;0.60;;
3175;SDS011;1599;51.564;6.990;2024-02-21T06:00:13;9.43;;;0.60;;
3175;SDS011;1599;51.564;6.990;2024-02-21T06:02:39;9.47;;;0.60;;
3175;SDS011;1599;51.564;6.990;2024-02-21T06:05:06;10.00;;;1.73;;
3175;SDS011;1599;51.564;6.990;2024-02-21T06:07:33;9.33;;;0.60;;
3175;SDS011;1599;51.564;6.990;2024-02-21T06:10:00;9.43;;;0.60;;
3175;SDS011;1599;51.564;6.990;2024-02-21T06:12:29;9.40;;;0.60;;
3175;SDS011;1599;51.564;6.990;2024-02-21T06:14:54;9.63;;;0.60;;
3175;SDS011;1599;51.564;6.990;2024-02-21T06:17:20;9.37;;;0.60;;
3175;SDS011;1599;51.564;6.990;2024-02-21T06:19:46;9.63;;;0.60;;
3175;SDS011;1599;51.564;6.990;2024-02-21T06:22:12;9.47;;;0.60;;
3175;SDS011;1599;51.564;6.990;2024-02-21T06:24:38;9.50;;;0.83;;
3175;SDS011;1599;51.564;6.990;2024-02-21T06:27:04;9.53;;;0.60;;
3175;SDS011;1599;51.564;6.990;2024-02-21T06:29:33;9.53;;;0.60;;
3175;SDS011;1599;51.564;6.990;2024-02-21T06:31:59;9.50;;;0.60;;
3175;SDS011;1599;51.564;6.990;2024-02-21T06:34:27;9.47;;;0.60;;
3175;SDS011;1599;51.564;6.990;2024-02-21T06:36:53;9.50;;;0.60;;
3175;SDS011;1599;51.564;6.990;2024-02-21T06:39:18;9.47;;;0.60;;
3175;SDS011;1599;51.564;6.990;2024-02-21T06:41:44;7.30;;;0.67;;
3175;SDS011;1599;51.564;6.990;2024-02-21T06:44:10;2.50;;;0.50;;
3175;SDS011;1599;51.564;6.990;2024-02-21T06:46:36;7.23;;;1.23;;
3175;SDS011;1599;51.564;6.990;2024-02-21T06:49:02;7.60;;;0.60;;
3175;SDS011;1599;51.564;6.990;2024-02-21T06:51:31;8.00;;;0.60;;
3175;SDS011;1599;51.564;6.990;2024-02-21T06:53:57;8.23;;;0.60;;
3175;SDS011;1599;51.564;6.990;2024-02-21T06:56:26;8.20;;;0.60;;
3175;SDS011;1599;51.564;6.990;2024-02-21T06:58:53;8.53;;;0.60;;
3175;SDS011;1599;51.564;6.990;2024-02-21T07:01:23;8.53;;;0.60;;
3175;SDS011;1599;51.564;6.990;2024-02-21T07:03:49;8.60;;;0.70;;
3175;SDS011;1599;51.564;6.990;2024-02-21T07:06:15;8.73;;;0.60;;
3175;SDS011;1599;51.564;6.990;2024-02-21T07:08:41;9.07;;;0.60;;
3175;SDS011;1599;51.564;6.990;2024-02-21T07:11:07;9.40;;;0.93;;
3175;SDS011;1599;51.564;6.990;2024-02-21T07:13:32;9.27;;;0.60;;
3175;SDS011;1599;51.564;6.990;2024-02-21T07:15:58;11.23;;;0.60;;
3175;SDS011;1599;51.564;6.990;2024-02-21T07:18:24;11.03;;;0.60;;
3175;SDS011;1599;51.564;6.990;2024-02-21T07:20:52;11.27;;;1.10;;
3175;SDS011;1599;51.564;6.990;2024-02-21T07:23:18;11.17;;;0.77;;
3175;SDS011;1599;51.564;6.990;2024-02-21T07:25:44;11.90;;;1.03;;
3175;SDS011;1599;51.564;6.990;2024-02-21T07:28:09;11.00;;;0.60;;
3175;SDS011;1599;51.564;6.990;2024-02-21T07:30:35;10.87;;;0.60;;
3175;SDS011;1599;51.564;6.990;2024-02-21T07:33:01;11.23;;;0.70;;
3175;SDS011;1599;51.564;6.990;2024-02-21T07:35:27;11.07;;;0.60;;
3175;SDS011;1599;51.564;6.990;2024-02-21T07:37:53;10.87;;;0.60;;
3175;SDS011;1599;51.564;6.990;2024-02-21T07:40:19;10.93;;;0.60;;
3175;SDS011;1599;51.564;6.990;2024-02-21T07:42:44;11.10;;;0.80;;
3175;SDS011;1599;51.564;6.990;2024-02-21T07:45:10;10.83;;;0.60;;
3175;SDS011;1599;51.564;6.990;2024-02-21T07:47:36;11.13;;;0.90;;
3175;SDS011;1599;51.564;6.990;2024-02-21T07:50:05;10.87;;;0.60;;
3175;SDS011;1599;51.564;6.990;2024-02-21T07:52:32;10.73;;;0.63;;
3175;SDS011;1599;51.564;6.990;2024-02-21T07:54:57;10.57;;;0.60;;
3175;SDS011;1599;51.564;6.990;2024-02-21T07:57:23;10.67;;;0.60;;
3175;SDS011;1599;51.564;6.990;2024-02-21T07:59:49;11.53;;;1.37;;
3175;SDS011;1599;51.564;6.990;2024-02-21T08:02:15;10.77;;;0.60;;
3175;SDS011;1599;51.564;6.990;2024-02-21T08:04:41;10.83;;;0.73;;
3175;SDS011;1599;51.564;6.990;2024-02-21T08:07:07;10.77;;;0.60;;
3175;SDS011;1599;51.564;6.990;2024-02-21T08:09:33;10.97;;;0.90;;
3175;SDS011;1599;51.564;6.990;2024-02-21T08:12:00;10.77;;;0.60;;
3175;SDS011;1599;51.564;6.990;2024-02-21T08:14:25;10.93;;;1.00;;
3175;SDS011;1599;51.564;6.990;2024-02-21T08:16:51;10.77;;;0.60;;
3175;SDS011;1599;51.564;6.990;2024-02-21T08:19:20;10.90;;;0.90;;
3175;SDS011;1599;51.564;6.990;2024-02-21T08:21:47;10.87;;;0.60;;
3175;SDS011;1599;51.564;6.990;2024-02-21T08:24:13;10.93;;;0.70;;
3175;SDS011;1599;51.564;6.990;2024-02-21T08:26:43;10.97;;;0.60;;
3175;SDS011;1599;51.564;6.990;2024-02-21T08:29:12;11.20;;;0.73;;
3175;SDS011;1599;51.564;6.990;2024-02-21T08:31:37;11.17;;;0.70;;
3175;SDS011;1599;51.564;6.990;2024-02-21T08:34:03;11.17;;;0.60;;
3175;SDS011;1599;51.564;6.990;2024-02-21T08:36:30;11.13;;;0.60;;
3175;SDS011;1599;51.564;6.990;2024-02-21T08:38:57;11.17;;;0.60;;
3175;SDS011;1599;51.564;6.990;2024-02-21T08:41:23;11.37;;;1.10;;
3175;SDS011;1599;51.564;6.990;2024-02-21T08:43:53;11.23;;;0.60;;
3175;SDS011;1599;51.564;6.990;2024-02-21T08:46:19;11.07;;;0.60;;
3175;SDS011;1599;51.564;6.990;2024-02-21T08:48:46;11.07;;;0.60;;
3175;SDS011;1599;51.564;6.990;2024-02-21T08:51:12;10.93;;;0.70;;
3175;SDS011;1599;51.564;6.990;2024-02-21T08:53:38;11.07;;;0.80;;
3175;SDS011;1599;51.564;6.990;2024-02-21T08:56:05;11.03;;;0.60;;
3175;SDS011;1599;51.564;6.990;2024-02-21T08:58:32;11.03;;;0.70;;
3175;SDS011;1599;51.564;6.990;2024-02-21T09:00:58;10.93;;;0.60;;
3175;SDS011;1599;51.564;6.990;2024-02-21T09:03:24;10.73;;;0.70;;
3175;SDS011;1599;51.564;6.990;2024-02-21T09:05:50;11.03;;;0.77;;
3175;SDS011;1599;51.564;6.990;2024-02-21T09:08:15;10.60;;;0.60;;
3175;SDS011;1599;51.564;6.990;2024-02-21T09:10:41;10.73;;;0.60;;
3175;SDS011;1599;51.564;6.990;2024-02-21T09:13:07;10.80;;;0.70;;
3175;SDS011;1599;51.564;6.990;2024-02-21T09:15:33;10.83;;;0.60;;
3175;SDS011;1599;51.564;6.990;2024-02-21T09:17:59;10.83;;;0.60;;
3175;SDS011;1599;51.564;6.990;2024-02-21T09:20:25;10.80;;;0.80;;
3175;SDS011;1599;51.564;6.990;2024-02-21T09:22:50;10.80;;;0.60;;
3175;SDS011;1599;51.564;6.990;2024-02-21T09:25:17;11.30;;;1.60;;
3175;SDS011;1599;51.564;6.990;2024-02-21T09:27:44;10.63;;;0.60;;
3175;SDS011;1599;51.564;6.990;2024-02-21T09:30:10;10.70;;;0.70;;
3175;SDS011;1599;51.564;6.990;2024-02-21T09:32:37;10.63;;;0.70;;
3175;SDS011;1599;51.564;6.990;2024-02-21T09:35:03;10.63;;;0.80;;
3175;SDS011;1599;51.564;6.990;2024-02-21T09:37:30;11.20;;;0.90;;
3175;SDS011;1599;51.564;6.990;2024-02-21T09:39:56;10.67;;;0.70;;
3175;SDS011;1599;51.564;6.990;2024-02-21T09:42:22;10.73;;;1.23;;
3175;SDS011;1599;51.564;6.990;2024-02-21T09:45:24;10.43;;;0.60;;
3175;SDS011;1599;51.564;6.990;2024-02-21T09:50:59;10.57;;;0.60;;
3175;SDS011;1599;51.564;6.990;2024-02-21T09:53:27;10.20;;;0.60;;
3175;SDS011;1599;51.564;6.990;2024-02-21T09:55:53;10.13;;;0.60;;
3175;SDS011;1599;51.564;6.990;2024-02-21T09:58:20;7.53;;;0.60;;
3175;SDS011;1599;51.564;6.990;2024-02-21T10:00:49;7.87;;;0.70;;
3175;SDS011;1599;51.564;6.990;2024-02-21T10:03:14;7.97;;;0.70;;
3175;SDS011;1599;51.564;6.990;2024-02-21T10:05:45;7.80;;;0.60;;
3175;SDS011;1599;51.564;6.990;2024-02-21T10:08:15;7.80;;;0.60;;
3175;SDS011;1599;51.564;6.990;2024-02-21T10:10:44;7.73;;;0.60;;
3175;SDS011;1599;51.564;6.990;2024-02-21T10:13:21;7.80;;;0.60;;
3175;SDS011;1599;51.564;6.990;2024-02-21T10:16:05;1.30;;;0.40;;
3175;SDS011;1599;51.564;6.990;2024-02-21T10:18:34;3.27;;;0.70;;
3175;SDS011;1599;51.564;6.990;2024-02-21T10:21:03;16.80;;;0.60;;
3175;SDS011;1599;51.564;6.990;2024-02-21T10:23:41;5.93;;;0.50;;
3175;SDS011;1599;51.564;6.990;2024-02-21T10:26:11;5.00;;;0.50;;
3175;SDS011;1599;51.564;6.990;2024-02-21T10:28:38;5.20;;;0.50;;
3175;SDS011;1599;51.564;6.990;2024-02-21T10:31:09;5.20;;;0.50;;
3175;SDS011;1599;51.564;6.990;2024-02-21T10:33:36;5.80;;;0.50;;
3175;SDS011;1599;51.564;6.990;2024-02-21T10:36:09;6.20;;;0.50;;
3175;SDS011;1599;51.564;6.990;2024-02-21T10:38:36;6.90;;;0.50;;
3175;SDS011;1599;51.564;6.990;2024-02-21T10:41:04;7.20;;;0.50;;
3175;SDS011;1599;51.564;6.990;2024-02-21T10:43:34;7.60;;;0.60;;
3175;SDS011;1599;51.564;6.990;2024-02-21T10:46:07;6.50;;;0.60;;
3175;SDS011;1599;51.564;6.990;2024-02-21T10:48:41;6.87;;;0.70;;
3175;SDS011;1599;51.564;6.990;2024-02-21T10:51:19;7.73;;;0.60;;
3175;SDS011;1599;51.564;6.990;2024-02-21T10:53:50;8.00;;;0.60;;
3175;SDS011;1599;51.564;6.990;2024-02-21T10:57:03;8.07;;;0.60;;
3175;SDS011;1599;51.564;6.990;2024-02-21T10:59:30;8.50;;;0.60;;
3175;SDS011;1599;51.564;6.990;2024-02-21T11:01:57;8.97;;;0.60;;
3175;SDS011;1599;51.564;6.990;2024-02-21T11:04:24;9.07;;;0.60;;
3175;SDS011;1599;51.564;6.990;2024-02-21T11:06:51;9.13;;;0.60;;
3175;SDS011;1599;51.564;6.990;2024-02-21T11:09:17;9.73;;;0.90;;
3175;SDS011;1599;51.564;6.990;2024-02-21T11:11:43;5.17;;;0.50;;
3175;SDS011;1599;51.564;6.990;2024-02-21T11:14:19;5.40;;;0.50;;
3175;SDS011;1599;51.564;6.990;2024-02-21T11:16:46;8.50;;;0.60;;
3175;SDS011;1599;51.564;6.990;2024-02-21T11:19:22;1.40;;;0.60;;
3175;SDS011;1599;51.564;6.990;2024-02-21T11:21:51;1.40;;;0.80;;
3175;SDS011;1599;51.564;6.990;2024-02-21T11:27:08;1.20;;;0.40;;
3175;SDS011;1599;51.564;6.990;2024-02-21T11:29:44;1.57;;;1.03;;
3175;SDS011;1599;51.564;6.990;2024-02-21T11:32:16;3.30;;;1.33;;
3175;SDS011;1599;51.564;6.990;2024-02-21T11:34:56;1.50;;;0.60;;
3175;SDS011;1599;51.564;6.990;2024-02-21T11:37:27;1.23;;;0.50;;
3175;SDS011;1599;51.564;6.990;2024-02-21T11:39:57;1.30;;;0.50;;
3175;SDS011;1599;51.564;6.990;2024-02-21T11:42:24;1.50;;;0.90;;
3175;SDS011;1599;51.564;6.990;2024-02-21T11:44:51;2.63;;;1.97;;
3175;SDS011;1599;51.564;6.990;2024-02-21T11:47:18;1.20;;;0.40;;
3175;SDS011;1599;51.564;6.990;2024-02-21T11:49:45;1.20;;;0.40;;
3175;SDS011;1599;51.564;6.990;2024-02-21T11:52:14;1.30;;;0.50;;
3175;SDS011;1599;51.564;6.990;2024-02-21T11:54:40;1.40;;;0.83;;
3175;SDS011;1599;51.564;6.990;2024-02-21T11:57:06;1.30;;;0.40;;
3175;SDS011;1599;51.564;6.990;2024-02-21T11:59:33;1.60;;;0.60;;
3175;SDS011;1599;51.564;6.990;2024-02-21T12:02:02;1.30;;;0.50;;
3175;SDS011;1599;51.564;6.990;2024-02-21T12:04:28;1.60;;;0.67;;
3175;SDS011;1599;51.564;6.990;2024-02-21T12:06:56;2.03;;;1.83;;
3175;SDS011;1599;51.564;6.990;2024-02-21T12:09:23;1.30;;;0.40;;
3175;SDS011;1599;51.564;6.990;2024-02-21T12:11:57;1.30;;;0.40;;
3175;SDS011;1599;51.564;6.990;2024-02-21T12:14:28;1.27;;;0.40;;
3175;SDS011;1599;51.564;6.990;2024-02-21T12:16:55;1.30;;;0.50;;
3175;SDS011;1599;51.564;6.990;2024-02-21T12:19:21;1.30;;;0.40;;
3175;SDS011;1599;51.564;6.990;2024-02-21T12:21:47;8.37;;;0.90;;
3175;SDS011;1599;51.564;6.990;2024-02-21T12:24:25;1.30;;;0.60;;
3175;SDS011;1599;51.564;6.990;2024-02-21T12:26:53;1.30;;;0.40;;
3175;SDS011;1599;51.564;6.990;2024-02-21T12:29:21;1.40;;;0.67;;
3175;SDS011;1599;51.564;6.990;2024-02-21T12:31:49;1.27;;;0.40;;
3175;SDS011;1599;51.564;6.990;2024-02-21T12:34:16;1.23;;;0.40;;
3175;SDS011;1599;51.564;6.990;2024-02-21T12:36:43;1.30;;;0.40;;
3175;SDS011;1599;51.564;6.990;2024-02-21T12:39:11;1.43;;;0.87;;
3175;SDS011;1599;51.564;6.990;2024-02-21T12:41:37;1.30;;;0.60;;
3175;SDS011;1599;51.564;6.990;2024-02-21T12:44:05;1.27;;;0.40;;
3175;SDS011;1599;51.564;6.990;2024-02-21T12:46:32;1.27;;;0.40;;
3175;SDS011;1599;51.564;6.990;2024-02-21T12:48:59;1.40;;;0.90;;
3175;SDS011;1599;51.564;6.990;2024-02-21T12:51:26;1.27;;;0.50;;
3175;SDS011;1599;51.564;6.990;2024-02-21T12:53:52;1.30;;;0.50;;
3175;SDS011;1599;51.564;6.990;2024-02-21T12:56:17;1.30;;;0.50;;
3175;SDS011;1599;51.564;6.990;2024-02-21T12:58:43;1.30;;;0.40;;
3175;SDS011;1599;51.564;6.990;2024-02-21T13:01:09;1.30;;;0.60;;
3175;SDS011;1599;51.564;6.990;2024-02-21T13:03:35;2.50;;;1.27;;
3175;SDS011;1599;51.564;6.990;2024-02-21T13:06:01;1.63;;;0.80;;
3175;SDS011;1599;51.564;6.990;2024-02-21T13:08:27;1.30;;;0.57;;
3175;SDS011;1599;51.564;6.990;2024-02-21T13:10:52;1.30;;;0.40;;
3175;SDS011;1599;51.564;6.990;2024-02-21T13:13:18;1.27;;;0.40;;
3175;SDS011;1599;51.564;6.990;2024-02-21T13:15:44;1.30;;;0.70;;
3175;SDS011;1599;51.564;6.990;2024-02-21T13:18:10;1.30;;;0.40;;
3175;SDS011;1599;51.564;6.990;2024-02-21T13:20:37;1.30;;;0.40;;
3175;SDS011;1599;51.564;6.990;2024-02-21T13:23:03;1.23;;;0.40;;
3175;SDS011;1599;51.564;6.990;2024-02-21T13:25:29;1.30;;;0.40;;
3175;SDS011;1599;51.564;6.990;2024-02-21T13:27:55;1.30;;;0.50;;
3175;SDS011;1599;51.564;6.990;2024-02-21T13:30:21;1.30;;;0.40;;
3175;SDS011;1599;51.564;6.990;2024-02-21T13:32:48;1.30;;;0.40;;
3175;SDS011;1599;51.564;6.990;2024-02-21T13:35:13;1.50;;;0.70;;
3175;SDS011;1599;51.564;6.990;2024-02-21T13:37:40;1.30;;;0.40;;
3175;SDS011;1599;51.564;6.990;2024-02-21T13:40:07;3.00;;;0.80;;
3175;SDS011;1599;51.564;6.990;2024-02-21T13:42:36;1.30;;;0.40;;
3175;SDS011;1599;51.564;6.990;2024-02-21T13:45:03;1.27;;;0.40;;
3175;SDS011;1599;51.564;6.990;2024-02-21T13:47:35;4.93;;;1.10;;
3175;SDS011;1599;51.564;6.990;2024-02-21T13:50:06;1.27;;;0.40;;
3175;SDS011;1599;51.564;6.990;2024-02-21T13:52:36;1.30;;;0.40;;
3175;SDS011;1599;51.564;6.990;2024-02-21T13:55:02;1.20;;;0.40;;
3175;SDS011;1599;51.564;6.990;2024-02-21T13:57:28;1.60;;;1.13;;
3175;SDS011;1599;51.564;6.990;2024-02-21T13:59:54;1.30;;;0.40;;
3175;SDS011;1599;51.564;6.990;2024-02-21T14:02:20;1.30;;;0.40;;
3175;SDS011;1599;51.564;6.990;2024-02-21T14:04:46;1.30;;;0.60;;
3175;SDS011;1599;51.564;6.990;2024-02-21T14:07:12;1.30;;;0.40;;
3175;SDS011;1599;51.564;6.990;2024-02-21T14:09:38;1.30;;;0.50;;
3175;SDS011;1599;51.564;6.990;2024-02-21T14:12:04;1.30;;;0.50;;
3175;SDS011;1599;51.564;6.990;2024-02-21T14:14:33;1.30;;;0.40;;
3175;SDS011;1599;51.564;6.990;2024-02-21T14:17:02;1.30;;;0.40;;
3175;SDS011;1599;51.564;6.990;2024-02-21T14:19:28;1.30;;;0.53;;
3175;SDS011;1599;51.564;6.990;2024-02-21T14:21:55;1.30;;;0.60;;
3175;SDS011;1599;51.564;6.990;2024-02-21T14:24:21;1.30;;;0.40;;
3175;SDS011;1599;51.564;6.990;2024-02-21T14:26:48;1.33;;;0.60;;
3175;SDS011;1599;51.564;6.990;2024-02-21T14:29:14;1.40;;;0.80;;
3175;SDS011;1599;51.564;6.990;2024-02-21T14:31:40;1.30;;;0.60;;
3175;SDS011;1599;51.564;6.990;2024-02-21T14:34:05;1.30;;;0.40;;
3175;SDS011;1599;51.564;6.990;2024-02-21T14:36:32;1.60;;;0.97;;
3175;SDS011;1599;51.564;6.990;2024-02-21T14:38:58;2.90;;;2.00;;
3175;SDS011;1599;51.564;6.990;2024-02-21T14:41:24;1.30;;;0.50;;
3175;SDS011;1599;51.564;6.990;2024-02-21T14:43:50;4.33;;;2.40;;
3175;SDS011;1599;51.564;6.990;2024-02-21T14:46:16;1.23;;;0.40;;
3175;SDS011;1599;51.564;6.990;2024-02-21T14:48:42;1.23;;;0.40;;
3175;SDS011;1599;51.564;6.990;2024-02-21T14:51:08;1.67;;;0.70;;
3175;SDS011;1599;51.564;6.990;2024-02-21T14:53:34;1.27;;;0.40;;
3175;SDS011;1599;51.564;6.990;2024-02-21T14:55:59;1.50;;;0.60;;
3175;SDS011;1599;51.564;6.990;2024-02-21T14:58:25;1.30;;;0.40;;
3175;SDS011;1599;51.564;6.990;2024-02-21T15:00:52;1.30;;;0.40;;
3175;SDS011;1599;51.564;6.990;2024-02-21T15:03:19;1.27;;;0.40;;
3175;SDS011;1599;51.564;6.990;2024-02-21T15:05:45;1.30;;;0.50;;
3175;SDS011;1599;51.564;6.990;2024-02-21T15:08:12;1.27;;;0.40;;
3175;SDS011;1599;51.564;6.990;2024-02-21T15:10:41;1.23;;;0.40;;
3175;SDS011;1599;51.564;6.990;2024-02-21T15:13:08;2.50;;;2.30;;
3175;SDS011;1599;51.564;6.990;2024-02-21T15:15:34;1.40;;;0.70;;
3175;SDS011;1599;51.564;6.990;2024-02-21T15:17:59;3.43;;;2.80;;